Time;durP1;ratioP1;P1;durP2;ratioP2;P2;SDS_P1;SDS_P2;PMS_P1;PMS_P2;Temp;Humidity;BMP_temperature;BMP_pressure;BME280_temperature;BME280_humidity;BME280_pressure;Samples;Min_cycle;Max_cycle;Signal;HPM_P1;HPM_P2
2023/02/27 00:02:25;;;;;;;22.52;21.30;;;;;;;;;;5143718;27;20204;-83
2023/02/27 00:04:53;;;;;;;22.67;21.27;;;;;;;;;;5144625;27;20203;-83
2023/02/27 00:07:24;;;;;;;22.25;20.95;;;;;;;;;;5144048;27;20295;-83
2023/02/27 00:09:51;;;;;;;21.75;20.52;;;;;;;;;;5144532;27;20200;-84
2023/02/27 00:12:18;;;;;;;21.73;20.30;;;;;;;;;;5143327;27;20224;-83
2023/02/27 00:14:45;;;;;;;22.05;20.85;;;;;;;;;;5143064;27;20708;-83
2023/02/27 00:17:12;;;;;;;21.70;20.50;;;;;;;;;;5143083;27;20205;-82
2023/02/27 00:19:41;;;;;;;22.70;21.35;;;;;;;;;;5143540;27;20208;-83
2023/02/27 00:22:08;;;;;;;22.38;20.83;;;;;;;;;;5142389;27;20209;-83
2023/02/27 00:24:35;;;;;;;22.50;21.13;;;;;;;;;;5143104;27;20212;-83
2023/02/27 00:27:02;;;;;;;21.88;20.63;;;;;;;;;;5142410;27;20760;-83
2023/02/27 00:29:29;;;;;;;22.80;21.20;;;;;;;;;;5142542;27;20197;-83
2023/02/27 00:31:56;;;;;;;22.52;21.13;;;;;;;;;;5142076;27;20219;-81
2023/02/27 00:34:23;;;;;;;22.85;21.38;;;;;;;;;;5143581;27;20208;-83
2023/02/27 00:36:51;;;;;;;23.60;21.75;;;;;;;;;;5143262;27;20223;-84
2023/02/27 00:39:18;;;;;;;22.60;20.98;;;;;;;;;;5143147;27;20205;-82
2023/02/27 00:41:45;;;;;;;23.05;21.73;;;;;;;;;;5142215;27;20204;-83
2023/02/27 00:44:12;;;;;;;22.65;21.35;;;;;;;;;;5144154;27;20547;-83
2023/02/27 00:46:39;;;;;;;22.02;20.77;;;;;;;;;;5144588;27;20214;-84
2023/02/27 00:49:06;;;;;;;23.95;22.45;;;;;;;;;;5144356;27;20259;-83
2023/02/27 00:51:33;;;;;;;22.60;20.77;;;;;;;;;;5142753;27;20227;-83
2023/02/27 00:54:02;;;;;;;22.73;21.23;;;;;;;;;;5144247;27;20621;-83
2023/02/27 00:56:29;;;;;;;22.00;20.80;;;;;;;;;;5143205;27;20262;-83
2023/02/27 00:58:56;;;;;;;22.48;21.27;;;;;;;;;;5143688;27;20212;-83
2023/02/27 01:01:23;;;;;;;22.20;21.00;;;;;;;;;;5143341;27;20205;-83
2023/02/27 01:03:50;;;;;;;22.58;21.02;;;;;;;;;;5142890;27;20271;-82
2023/02/27 01:06:17;;;;;;;22.45;21.15;;;;;;;;;;5143277;27;20351;-82
2023/02/27 01:08:44;;;;;;;21.88;20.58;;;;;;;;;;5142657;27;20208;-83
2023/02/27 01:11:13;;;;;;;22.30;20.90;;;;;;;;;;5143060;27;20821;-83
2023/02/27 01:13:40;;;;;;;22.30;20.60;;;;;;;;;;5141815;27;20221;-83
2023/02/27 01:16:10;;;;;;;24.33;22.45;;;;;;;;;;5142215;27;20224;-83
2023/02/27 01:18:37;;;;;;;22.10;20.90;;;;;;;;;;5141945;27;20202;-83
2023/02/27 01:21:04;;;;;;;21.20;20.10;;;;;;;;;;5142347;27;20280;-83
2023/02/27 01:23:31;;;;;;;22.48;20.92;;;;;;;;;;5141212;27;20201;-83
2023/02/27 01:25:58;;;;;;;22.70;21.33;;;;;;;;;;5141179;27;20690;-83
2023/02/27 01:28:26;;;;;;;23.00;21.55;;;;;;;;;;5142586;27;20263;-82
2023/02/27 01:30:54;;;;;;;22.20;20.90;;;;;;;;;;5141476;27;20226;-83
2023/02/27 01:33:21;;;;;;;21.95;20.65;;;;;;;;;;5141535;27;20197;-82
2023/02/27 01:35:48;;;;;;;22.73;21.23;;;;;;;;;;5141954;27;20706;-82
2023/02/27 01:38:15;;;;;;;21.52;20.33;;;;;;;;;;5141768;27;20204;-82
2023/02/27 01:40:42;;;;;;;21.55;20.35;;;;;;;;;;5141780;27;20211;-83
2023/02/27 01:43:14;;;;;;;22.45;21.15;;;;;;;;;;5140353;27;20211;-83
2023/02/27 01:45:46;;;;;;;22.27;20.98;;;;;;;;;;5141725;27;20221;-82
2023/02/27 01:48:15;;;;;;;22.63;21.35;;;;;;;;;;5142034;27;20234;-83
2023/02/27 01:50:45;;;;;;;22.70;21.40;;;;;;;;;;5142870;27;20208;-83
2023/02/27 01:53:15;;;;;;;22.83;21.42;;;;;;;;;;5142152;27;20213;-83
2023/02/27 01:55:42;;;;;;;21.70;20.33;;;;;;;;;;5141452;27;20227;-84
2023/02/27 01:58:11;;;;;;;23.48;21.92;;;;;;;;;;5141668;27;20200;-83
2023/02/27 02:00:39;;;;;;;21.70;20.48;;;;;;;;;;5140981;27;20204;-83
2023/02/27 02:03:13;;;;;;;21.80;20.52;;;;;;;;;;5140219;27;20228;-82
2023/02/27 02:05:40;;;;;;;22.00;20.40;;;;;;;;;;5140536;27;20220;-83
2023/02/27 02:08:07;;;;;;;22.20;20.85;;;;;;;;;;5140333;27;20210;-82
2023/02/27 02:10:34;;;;;;;21.92;20.73;;;;;;;;;;5140018;27;20206;-83
2023/02/27 02:13:01;;;;;;;21.45;20.30;;;;;;;;;;5140299;27;20221;-83
2023/02/27 02:15:38;;;;;;;21.23;20.13;;;;;;;;;;5139677;27;20276;-83
2023/02/27 02:18:11;;;;;;;21.60;20.38;;;;;;;;;;5139540;27;20760;-83
2023/02/27 02:20:56;;;;;;;22.88;21.17;;;;;;;;;;5138980;27;20186;-82
2023/02/27 02:23:39;;;;;;;22.85;21.10;;;;;;;;;;5138972;27;20198;-82
2023/02/27 02:26:27;;;;;;;22.70;21.23;;;;;;;;;;5140392;27;20236;-83
2023/02/27 02:29:14;;;;;;;22.20;21.02;;;;;;;;;;5133375;27;20200;-83
2023/02/27 02:31:51;;;;;;;21.85;20.55;;;;;;;;;;5139201;27;20230;-83
2023/02/27 02:34:34;;;;;;;21.75;20.45;;;;;;;;;;5140082;28;20197;-83
2023/02/27 02:37:17;;;;;;;22.00;20.70;;;;;;;;;;5105170;28;20233;-83
2023/02/27 02:40:02;;;;;;;22.33;21.13;;;;;;;;;;5140295;28;20197;-83
2023/02/27 02:42:33;;;;;;;22.13;20.85;;;;;;;;;;5138900;28;20230;-83
2023/02/27 02:45:06;;;;;;;21.88;20.67;;;;;;;;;;5140297;28;20203;-82
2023/02/27 02:47:36;;;;;;;23.08;21.58;;;;;;;;;;5139638;28;20182;-83
2023/02/27 02:50:07;;;;;;;22.30;21.13;;;;;;;;;;5141211;28;20221;-82
2023/02/27 02:52:39;;;;;;;22.70;21.30;;;;;;;;;;5139409;28;20207;-83
2023/02/27 02:55:09;;;;;;;23.98;22.58;;;;;;;;;;5139648;28;20284;-82
2023/02/27 02:57:40;;;;;;;22.67;21.13;;;;;;;;;;5139652;28;20551;-82
2023/02/27 03:00:09;;;;;;;21.92;20.63;;;;;;;;;;5139545;28;20203;-83
2023/02/27 03:02:40;;;;;;;22.17;20.60;;;;;;;;;;5139525;28;20238;-83
2023/02/27 03:05:09;;;;;;;22.35;21.15;;;;;;;;;;5140020;28;20230;-82
2023/02/27 03:07:38;;;;;;;23.50;22.00;;;;;;;;;;5139369;28;20619;-83
2023/02/27 03:10:08;;;;;;;21.92;20.60;;;;;;;;;;5140038;28;20194;-83
2023/02/27 03:12:36;;;;;;;23.45;22.00;;;;;;;;;;5139633;28;20243;-82
2023/02/27 03:15:06;;;;;;;21.65;20.45;;;;;;;;;;5140316;28;20198;-83
2023/02/27 03:17:39;;;;;;;22.10;20.83;;;;;;;;;;5140030;28;20646;-83
2023/02/27 03:20:07;;;;;;;23.33;21.92;;;;;;;;;;5140786;28;20213;-83
2023/02/27 03:22:36;;;;;;;22.42;21.23;;;;;;;;;;5139332;28;20269;-83
2023/02/27 03:25:05;;;;;;;23.40;21.92;;;;;;;;;;5140224;28;20202;-83
2023/02/27 03:27:33;;;;;;;24.35;22.67;;;;;;;;;;5140191;28;20199;-83
2023/02/27 03:30:03;;;;;;;23.83;22.40;;;;;;;;;;5139280;28;20194;-82
2023/02/27 03:32:37;;;;;;;24.38;22.60;;;;;;;;;;5141899;27;20218;-83
2023/02/27 03:35:06;;;;;;;23.55;22.15;;;;;;;;;;5144503;27;20178;-83
2023/02/27 03:37:39;;;;;;;23.23;21.75;;;;;;;;;;5143985;27;20218;-82
2023/02/27 03:40:10;;;;;;;23.00;21.70;;;;;;;;;;5143989;27;20239;-83
2023/02/27 03:42:39;;;;;;;23.25;21.77;;;;;;;;;;5142944;27;20347;-83
2023/02/27 03:45:08;;;;;;;24.17;22.38;;;;;;;;;;5144281;27;20225;-83
2023/02/27 03:47:37;;;;;;;22.90;21.50;;;;;;;;;;5144633;27;20207;-83
2023/02/27 03:50:04;;;;;;;21.88;20.58;;;;;;;;;;5143999;27;20225;-83
2023/02/27 03:52:33;;;;;;;23.27;21.88;;;;;;;;;;5143165;27;20636;-83
2023/02/27 03:55:03;;;;;;;22.33;21.02;;;;;;;;;;5143588;27;20202;-83
2023/02/27 03:57:31;;;;;;;22.40;20.95;;;;;;;;;;5143771;27;20202;-83
2023/02/27 03:59:59;;;;;;;21.58;20.38;;;;;;;;;;5144059;27;20201;-83
2023/02/27 04:02:26;;;;;;;21.95;20.73;;;;;;;;;;5143898;27;20202;-83
2023/02/27 04:04:54;;;;;;;23.05;21.40;;;;;;;;;;5144132;27;20206;-83
2023/02/27 04:07:26;;;;;;;22.13;20.83;;;;;;;;;;5143646;27;20201;-83
2023/02/27 04:09:59;;;;;;;22.17;20.98;;;;;;;;;;5153672;27;20297;-82
2023/02/27 04:12:35;;;;;;;22.05;20.85;;;;;;;;;;5157405;27;20206;-83
2023/02/27 04:15:08;;;;;;;22.60;21.35;;;;;;;;;;5157911;27;20233;-84
2023/02/27 04:17:38;;;;;;;23.98;22.60;;;;;;;;;;5158316;27;20195;-83
2023/02/27 04:20:20;;;;;;;23.10;21.48;;;;;;;;;;5157767;27;20210;-83
2023/02/27 04:22:50;;;;;;;23.23;21.80;;;;;;;;;;5152282;27;20293;-83
2023/02/27 04:25:24;;;;;;;23.30;22.00;;;;;;;;;;5143141;27;20226;-83
2023/02/27 04:27:53;;;;;;;23.10;21.90;;;;;;;;;;5144272;27;20206;-82
2023/02/27 04:30:25;;;;;;;23.60;22.23;;;;;;;;;;5143582;27;20189;-83
2023/02/27 04:32:54;;;;;;;22.83;21.52;;;;;;;;;;5144943;27;20209;-83
2023/02/27 04:35:24;;;;;;;24.45;22.95;;;;;;;;;;5155014;27;20222;-82
2023/02/27 04:37:56;;;;;;;23.48;22.17;;;;;;;;;;5158081;27;20197;-83
2023/02/27 04:40:28;;;;;;;23.85;22.35;;;;;;;;;;5158291;27;20216;-83
2023/02/27 04:42:56;;;;;;;23.75;22.20;;;;;;;;;;5157357;27;20232;-83
2023/02/27 04:45:24;;;;;;;23.60;22.10;;;;;;;;;;5157181;27;20225;-83
2023/02/27 04:47:54;;;;;;;23.23;21.92;;;;;;;;;;5158159;27;20207;-82
2023/02/27 04:50:24;;;;;;;23.50;22.00;;;;;;;;;;5158341;27;20205;-84
2023/02/27 04:52:56;;;;;;;23.50;22.10;;;;;;;;;;5157701;27;20226;-82
2023/02/27 04:55:25;;;;;;;22.75;21.35;;;;;;;;;;5145399;27;20315;-81
2023/02/27 04:57:54;;;;;;;24.08;22.70;;;;;;;;;;5143146;27;20206;-83
2023/02/27 05:00:22;;;;;;;22.77;21.40;;;;;;;;;;5142625;27;20208;-83
2023/02/27 05:02:52;;;;;;;22.83;21.35;;;;;;;;;;5141233;27;20197;-83
2023/02/27 05:05:22;;;;;;;23.40;21.95;;;;;;;;;;5141517;27;20285;-82
2023/02/27 05:07:52;;;;;;;23.33;22.00;;;;;;;;;;5142498;27;20265;-82
2023/02/27 05:10:24;;;;;;;23.75;22.25;;;;;;;;;;5141915;27;20237;-83
2023/02/27 05:12:53;;;;;;;22.60;21.20;;;;;;;;;;5141160;27;20217;-82
2023/02/27 05:15:24;;;;;;;22.60;21.30;;;;;;;;;;5140955;27;20267;-83
2023/02/27 05:17:55;;;;;;;23.25;21.80;;;;;;;;;;5142198;27;20607;-82
2023/02/27 05:20:25;;;;;;;22.58;21.15;;;;;;;;;;5142322;27;20209;-82
2023/02/27 05:22:59;;;;;;;23.50;22.10;;;;;;;;;;5140744;27;20197;-83
2023/02/27 05:25:31;;;;;;;23.42;22.02;;;;;;;;;;5141778;27;20229;-83
2023/02/27 05:28:00;;;;;;;23.42;21.95;;;;;;;;;;5142118;27;20722;-82
2023/02/27 05:30:30;;;;;;;24.25;22.75;;;;;;;;;;5141525;27;20203;-83
2023/02/27 05:32:59;;;;;;;24.55;22.95;;;;;;;;;;5141252;27;20688;-82
2023/02/27 05:35:29;;;;;;;24.05;22.55;;;;;;;;;;5140533;27;20316;-83
2023/02/27 05:38:01;;;;;;;25.15;23.35;;;;;;;;;;5141019;27;20214;-82
2023/02/27 05:40:32;;;;;;;23.33;21.85;;;;;;;;;;5141617;27;20215;-82
2023/02/27 05:43:02;;;;;;;23.58;22.17;;;;;;;;;;5141136;27;20182;-82
2023/02/27 05:45:33;;;;;;;23.80;22.33;;;;;;;;;;5141257;27;20220;-82
2023/02/27 05:48:01;;;;;;;24.20;22.60;;;;;;;;;;5141414;27;20195;-83
2023/02/27 05:50:29;;;;;;;23.50;21.98;;;;;;;;;;5140263;27;20212;-83
2023/02/27 05:52:58;;;;;;;23.25;21.85;;;;;;;;;;5140437;27;20266;-83
2023/02/27 05:55:28;;;;;;;25.10;22.83;;;;;;;;;;5140011;27;20218;-83
2023/02/27 05:57:58;;;;;;;23.88;22.42;;;;;;;;;;5141164;27;20206;-82
2023/02/27 06:00:28;;;;;;;24.20;22.50;;;;;;;;;;5139952;27;20254;-83
2023/02/27 06:02:55;;;;;;;24.33;22.83;;;;;;;;;;5140725;27;20618;-82
2023/02/27 06:05:22;;;;;;;23.73;22.02;;;;;;;;;;5140669;27;20716;-82
2023/02/27 06:07:50;;;;;;;23.92;22.15;;;;;;;;;;5140431;27;20214;-83
2023/02/27 06:10:19;;;;;;;23.55;22.02;;;;;;;;;;5140516;27;20210;-83
2023/02/27 06:12:46;;;;;;;22.88;21.58;;;;;;;;;;5140076;27;20241;-82
2023/02/27 06:15:14;;;;;;;23.17;21.42;;;;;;;;;;5140899;27;20232;-83
2023/02/27 06:17:41;;;;;;;24.88;22.98;;;;;;;;;;5140769;27;20198;-83
2023/02/27 06:20:09;;;;;;;23.75;22.33;;;;;;;;;;5141439;27;20228;-83
2023/02/27 06:22:36;;;;;;;22.90;21.50;;;;;;;;;;5139891;27;20235;-83
2023/02/27 06:25:04;;;;;;;23.10;21.70;;;;;;;;;;5140393;27;20246;-83
2023/02/27 06:27:33;;;;;;;24.10;22.60;;;;;;;;;;5140463;27;20261;-83
2023/02/27 06:30:00;;;;;;;23.65;22.15;;;;;;;;;;5140237;27;20228;-82
2023/02/27 06:32:28;;;;;;;24.50;22.90;;;;;;;;;;5140606;27;20206;-82
2023/02/27 06:34:55;;;;;;;25.10;23.45;;;;;;;;;;5143224;27;20301;-81
2023/02/27 06:37:22;;;;;;;24.27;22.70;;;;;;;;;;5144019;28;20250;-82
2023/02/27 06:39:49;;;;;;;24.00;22.50;;;;;;;;;;5144380;28;20201;-81
2023/02/27 06:42:16;;;;;;;25.77;24.15;;;;;;;;;;5142928;28;20219;-82
2023/02/27 06:44:43;;;;;;;25.10;23.30;;;;;;;;;;5142847;28;20201;-82
2023/02/27 06:47:10;;;;;;;24.80;23.10;;;;;;;;;;5142101;27;20201;-82
2023/02/27 06:49:38;;;;;;;25.92;24.02;;;;;;;;;;5139525;28;20223;-84
2023/02/27 06:52:06;;;;;;;25.67;23.98;;;;;;;;;;5137121;28;20205;-85
2023/02/27 06:54:34;;;;;;;25.92;24.02;;;;;;;;;;5140125;28;20611;-84
2023/02/27 06:57:01;;;;;;;26.30;24.60;;;;;;;;;;5139646;28;20282;-84
2023/02/27 06:59:28;;;;;;;25.35;23.52;;;;;;;;;;5139657;28;20250;-84
2023/02/27 07:01:55;;;;;;;26.15;23.83;;;;;;;;;;5140022;28;20209;-84
2023/02/27 07:04:24;;;;;;;26.23;23.98;;;;;;;;;;5139300;28;20206;-84
2023/02/27 07:06:52;;;;;;;24.98;23.15;;;;;;;;;;5141888;27;20232;-84
2023/02/27 07:09:22;;;;;;;25.15;23.45;;;;;;;;;;5143729;27;20193;-84
2023/02/27 07:11:50;;;;;;;25.45;23.55;;;;;;;;;;5142487;27;20209;-85
2023/02/27 07:14:17;;;;;;;26.50;24.50;;;;;;;;;;5143005;27;20224;-85
2023/02/27 07:16:49;;;;;;;26.35;24.60;;;;;;;;;;5144171;27;20223;-84
2023/02/27 07:19:16;;;;;;;25.40;23.77;;;;;;;;;;5144046;27;20186;-85
2023/02/27 07:21:43;;;;;;;25.15;23.52;;;;;;;;;;5144302;27;20208;-84
2023/02/27 07:24:17;;;;;;;26.33;24.52;;;;;;;;;;5144187;27;20231;-84
2023/02/27 07:26:44;;;;;;;24.80;23.30;;;;;;;;;;5143490;27;20221;-84
2023/02/27 07:29:14;;;;;;;27.17;25.30;;;;;;;;;;5144435;27;20296;-85
2023/02/27 07:31:50;;;;;;;26.02;24.38;;;;;;;;;;5142898;27;20672;-84
2023/02/27 07:34:17;;;;;;;26.00;24.10;;;;;;;;;;5143370;27;20228;-85
2023/02/27 07:36:44;;;;;;;27.10;25.02;;;;;;;;;;5142136;27;20284;-84
2023/02/27 07:39:18;;;;;;;28.65;26.40;;;;;;;;;;5142487;27;20289;-84
2023/02/27 07:41:45;;;;;;;37.63;33.88;;;;;;;;;;5142513;27;20217;-84
2023/02/27 07:44:36;;;;;;;;;;;;;;;;;;;;;
2023/02/27 07:47:05;;;;;;;32.75;29.95;;;;;;;;;;5143342;27;20330;-84
2023/02/27 07:49:33;;;;;;;30.38;27.85;;;;;;;;;;5142994;27;20206;-84
2023/02/27 07:52:00;;;;;;;29.27;26.88;;;;;;;;;;5141432;27;20205;-84
2023/02/27 07:55:00;;;;;;;28.73;26.50;;;;;;;;;;5142353;27;20252;-84
2023/02/27 07:57:28;;;;;;;26.67;24.98;;;;;;;;;;5141905;27;20200;-86
2023/02/27 08:00:10;;;;;;;26.52;24.63;;;;;;;;;;5140687;27;20201;-85
2023/02/27 08:02:37;;;;;;;27.70;25.60;;;;;;;;;;5139410;27;20240;-86
2023/02/27 08:05:05;;;;;;;26.63;24.92;;;;;;;;;;5140034;27;20324;-85
2023/02/27 08:07:32;;;;;;;26.17;24.48;;;;;;;;;;5140579;27;20205;-85
2023/02/27 08:10:01;;;;;;;25.27;23.67;;;;;;;;;;5140761;27;20209;-86
2023/02/27 08:12:44;;;;;;;26.95;25.05;;;;;;;;;;5139717;27;20198;-84
2023/02/27 08:15:12;;;;;;;25.70;24.00;;;;;;;;;;5139039;27;20259;-86
2023/02/27 08:17:40;;;;;;;26.13;24.17;;;;;;;;;;5121176;27;20222;-86
2023/02/27 08:20:10;;;;;;;25.95;24.02;;;;;;;;;;5139828;27;20671;-86
2023/02/27 08:22:43;;;;;;;26.05;24.15;;;;;;;;;;5139848;27;20195;-86
2023/02/27 08:25:11;;;;;;;25.23;23.63;;;;;;;;;;5139286;27;20691;-86
2023/02/27 08:27:39;;;;;;;25.30;23.42;;;;;;;;;;5140295;27;20228;-86
2023/02/27 08:30:09;;;;;;;26.20;24.20;;;;;;;;;;5140429;27;20192;-86
2023/02/27 08:32:55;;;;;;;26.17;24.02;;;;;;;;;;5139143;27;20216;-86
2023/02/27 08:35:23;;;;;;;26.13;24.50;;;;;;;;;;5140144;27;20228;-85
2023/02/27 08:37:52;;;;;;;27.50;25.55;;;;;;;;;;5139362;27;20185;-86
2023/02/27 08:40:19;;;;;;;25.27;23.58;;;;;;;;;;5140430;27;20730;-86
2023/02/27 08:42:46;;;;;;;23.92;22.15;;;;;;;;;;5139306;27;20252;-86
2023/02/27 08:45:14;;;;;;;23.35;21.80;;;;;;;;;;5139574;27;20223;-85
2023/02/27 08:47:44;;;;;;;24.13;22.42;;;;;;;;;;5140852;27;20201;-85
2023/02/27 08:50:12;;;;;;;23.35;21.83;;;;;;;;;;5141386;27;20192;-85
2023/02/27 08:52:41;;;;;;;24.48;22.33;;;;;;;;;;5141865;27;20370;-84
2023/02/27 08:55:11;;;;;;;25.80;23.92;;;;;;;;;;5143344;27;20356;-87
2023/02/27 08:57:38;;;;;;;23.70;22.20;;;;;;;;;;5144279;27;20183;-83
2023/02/27 09:00:06;;;;;;;23.55;22.00;;;;;;;;;;5138767;27;20212;-85
2023/02/27 09:02:33;;;;;;;22.30;21.00;;;;;;;;;;5132584;27;20236;-86
2023/02/27 09:05:01;;;;;;;24.10;22.40;;;;;;;;;;5143289;27;20247;-85
2023/02/27 09:07:28;;;;;;;24.85;23.27;;;;;;;;;;5144400;27;20227;-84
2023/02/27 09:09:56;;;;;;;23.52;22.13;;;;;;;;;;5146612;27;20212;-82
2023/02/27 09:12:23;;;;;;;22.33;21.13;;;;;;;;;;5143692;27;20205;-84
2023/02/27 09:14:58;;;;;;;23.00;21.48;;;;;;;;;;5143136;27;20277;-86
2023/02/27 09:17:31;;;;;;;23.55;22.00;;;;;;;;;;5141344;27;20180;-84
2023/02/27 09:19:58;;;;;;;24.75;23.10;;;;;;;;;;5144848;27;20195;-80
2023/02/27 09:22:25;;;;;;;24.02;22.52;;;;;;;;;;5142604;27;20607;-79
2023/02/27 09:24:52;;;;;;;23.58;21.95;;;;;;;;;;5138817;27;20200;-79
2023/02/27 09:27:22;;;;;;;23.33;21.80;;;;;;;;;;5137306;27;20604;-81
2023/02/27 09:29:54;;;;;;;23.88;22.27;;;;;;;;;;5137224;27;20208;-80
2023/02/27 09:32:21;;;;;;;25.38;23.48;;;;;;;;;;5143647;27;20208;-83
2023/02/27 09:34:48;;;;;;;24.83;23.23;;;;;;;;;;5145205;27;20204;-84
2023/02/27 09:37:15;;;;;;;23.48;22.08;;;;;;;;;;5144901;27;20201;-80
2023/02/27 09:39:42;;;;;;;24.13;22.58;;;;;;;;;;5145036;27;20201;-80
2023/02/27 09:42:14;;;;;;;26.30;24.80;;;;;;;;;;5143678;27;20208;-82
2023/02/27 09:44:43;;;;;;;25.52;23.92;;;;;;;;;;5143501;27;20192;-81
2023/02/27 09:47:13;;;;;;;26.75;25.15;;;;;;;;;;5141898;27;20207;-81
2023/02/27 09:49:47;;;;;;;25.95;24.45;;;;;;;;;;5143123;27;20242;-83
2023/02/27 09:52:15;;;;;;;26.08;24.48;;;;;;;;;;5143402;27;20268;-83
2023/02/27 09:54:42;;;;;;;27.20;25.40;;;;;;;;;;5145097;27;20268;-84
2023/02/27 09:57:13;;;;;;;26.13;24.70;;;;;;;;;;5142415;27;20242;-83
2023/02/27 09:59:42;;;;;;;25.80;24.20;;;;;;;;;;5130628;27;20212;-85
2023/02/27 10:02:18;;;;;;;25.08;23.67;;;;;;;;;;5142323;27;20565;-84
2023/02/27 10:04:52;;;;;;;25.75;24.35;;;;;;;;;;5143673;27;20245;-85
2023/02/27 10:07:25;;;;;;;24.35;22.95;;;;;;;;;;5141664;27;20211;-83
2023/02/27 10:09:56;;;;;;;23.58;22.27;;;;;;;;;;5144287;27;20205;-83
2023/02/27 10:12:36;;;;;;;24.08;22.67;;;;;;;;;;5143390;27;20212;-85
2023/02/27 10:15:09;;;;;;;24.23;22.65;;;;;;;;;;5140880;27;20220;-83
2023/02/27 10:17:39;;;;;;;25.85;24.20;;;;;;;;;;5143763;27;20231;-83
2023/02/27 10:20:10;;;;;;;25.60;23.88;;;;;;;;;;5143167;27;20629;-84
2023/02/27 10:22:40;;;;;;;24.40;22.67;;;;;;;;;;5141394;27;20615;-81
2023/02/27 10:25:12;;;;;;;24.05;22.60;;;;;;;;;;5141708;27;20233;-82
2023/02/27 10:27:40;;;;;;;25.05;23.42;;;;;;;;;;5141169;27;20199;-82
2023/02/27 10:30:17;;;;;;;25.27;23.48;;;;;;;;;;5142244;27;20250;-84
2023/02/27 10:32:47;;;;;;;25.05;23.40;;;;;;;;;;5142962;27;20220;-84
2023/02/27 10:35:21;;;;;;;24.80;23.08;;;;;;;;;;5143075;27;20227;-84
2023/02/27 10:37:51;;;;;;;24.58;23.02;;;;;;;;;;5144136;28;20180;-83
2023/02/27 10:40:19;;;;;;;24.15;22.63;;;;;;;;;;5142817;27;20683;-83
2023/02/27 10:42:46;;;;;;;24.70;22.55;;;;;;;;;;5143837;28;20201;-83
2023/02/27 10:45:14;;;;;;;24.73;23.23;;;;;;;;;;5144045;28;20239;-84
2023/02/27 10:47:41;;;;;;;24.35;22.60;;;;;;;;;;5143498;27;20209;-85
2023/02/27 10:50:22;;;;;;;25.92;24.30;;;;;;;;;;5145217;28;20204;-84
2023/02/27 10:52:50;;;;;;;25.15;23.60;;;;;;;;;;5142975;28;20205;-86
2023/02/27 10:55:23;;;;;;;24.92;23.27;;;;;;;;;;5142560;28;20319;-84
2023/02/27 10:57:54;;;;;;;24.38;22.55;;;;;;;;;;5142550;28;20201;-86
2023/02/27 11:00:27;;;;;;;24.40;23.00;;;;;;;;;;5143018;28;20204;-83
2023/02/27 11:02:54;;;;;;;24.15;22.63;;;;;;;;;;5141350;27;20231;-84
2023/02/27 11:05:25;;;;;;;24.55;22.90;;;;;;;;;;5140191;28;20269;-84
2023/02/27 11:07:52;;;;;;;25.58;24.05;;;;;;;;;;5141366;28;20212;-84
2023/02/27 11:10:25;;;;;;;25.73;24.20;;;;;;;;;;5141682;28;20201;-91
2023/02/27 11:13:02;;;;;;;24.05;22.55;;;;;;;;;;5139951;27;20591;-84
2023/02/27 11:15:30;;;;;;;26.17;24.55;;;;;;;;;;5142029;28;20224;-80
2023/02/27 11:18:12;;;;;;;27.27;25.38;;;;;;;;;;5143135;28;20201;-81
2023/02/27 11:20:42;;;;;;;26.33;24.60;;;;;;;;;;5143382;28;20266;-80
2023/02/27 11:23:14;;;;;;;26.38;24.63;;;;;;;;;;5143294;28;20201;-80
2023/02/27 11:25:42;;;;;;;25.63;24.05;;;;;;;;;;5143336;27;20254;-80
2023/02/27 11:28:13;;;;;;;25.30;23.30;;;;;;;;;;5143822;28;20208;-80
2023/02/27 11:30:42;;;;;;;24.65;23.10;;;;;;;;;;5143732;28;20617;-80
2023/02/27 11:33:17;;;;;;;23.38;22.08;;;;;;;;;;5142788;28;20208;-78
2023/02/27 11:35:50;;;;;;;24.17;22.48;;;;;;;;;;5141862;28;20231;-78
2023/02/27 11:38:18;;;;;;;23.83;22.52;;;;;;;;;;5143460;27;20230;-79
2023/02/27 11:40:49;;;;;;;22.00;20.60;;;;;;;;;;5143516;28;20201;-80
2023/02/27 11:43:17;;;;;;;22.65;21.00;;;;;;;;;;5143747;28;20190;-79
2023/02/27 11:45:50;;;;;;;22.00;20.50;;;;;;;;;;5143713;28;20224;-79
2023/02/27 11:48:18;;;;;;;22.70;21.08;;;;;;;;;;5142792;27;20209;-80
2023/02/27 11:51:04;;;;;;;23.55;22.05;;;;;;;;;;5143078;28;20242;-79
2023/02/27 11:53:57;;;;;;;23.55;22.05;;;;;;;;;;5142884;27;20209;-80
2023/02/27 11:56:27;;;;;;;23.40;22.00;;;;;;;;;;5146295;27;20229;-79
2023/02/27 11:58:59;;;;;;;24.15;22.25;;;;;;;;;;5145647;27;20204;-79
2023/02/27 12:01:28;;;;;;;22.75;21.45;;;;;;;;;;5145018;27;20295;-79
2023/02/27 12:03:58;;;;;;;23.42;22.02;;;;;;;;;;5146110;27;20247;-79
2023/02/27 12:06:28;;;;;;;22.95;21.55;;;;;;;;;;5143184;27;20266;-79
2023/02/27 12:08:59;;;;;;;24.08;22.67;;;;;;;;;;5146167;27;20196;-81
2023/02/27 12:11:28;;;;;;;24.52;22.90;;;;;;;;;;5144014;27;20208;-81
2023/02/27 12:13:57;;;;;;;22.90;21.50;;;;;;;;;;5145047;27;20209;-81
2023/02/27 12:16:29;;;;;;;23.70;22.30;;;;;;;;;;5143993;27;20286;-81
2023/02/27 12:18:58;;;;;;;23.58;22.08;;;;;;;;;;5144755;27;20273;-80
2023/02/27 12:21:27;;;;;;;23.80;22.30;;;;;;;;;;5142805;27;20212;-81
2023/02/27 12:23:57;;;;;;;24.30;22.60;;;;;;;;;;5144961;27;20214;-81
2023/02/27 12:26:28;;;;;;;23.38;21.98;;;;;;;;;;5144125;27;20220;-80
2023/02/27 12:28:57;;;;;;;23.60;22.20;;;;;;;;;;5144743;27;20205;-81
2023/02/27 12:31:36;;;;;;;25.20;23.80;;;;;;;;;;5144097;27;20222;-81
2023/02/27 12:34:05;;;;;;;23.77;22.33;;;;;;;;;;5145336;27;20242;-84
2023/02/27 12:36:32;;;;;;;24.02;22.70;;;;;;;;;;5143456;27;20229;-80
2023/02/27 12:38:59;;;;;;;23.90;22.17;;;;;;;;;;5144550;27;20222;-84
2023/02/27 12:41:37;;;;;;;24.23;22.73;;;;;;;;;;5143002;27;20665;-81
2023/02/27 12:44:23;;;;;;;24.33;22.70;;;;;;;;;;5141834;27;20664;-81
2023/02/27 12:46:54;;;;;;;24.17;22.67;;;;;;;;;;5129736;27;20539;-83
2023/02/27 12:49:25;;;;;;;23.40;22.10;;;;;;;;;;5145685;27;20192;-80
2023/02/27 12:51:58;;;;;;;23.67;22.25;;;;;;;;;;5144975;27;20233;-82
2023/02/27 12:54:32;;;;;;;23.60;22.20;;;;;;;;;;5144819;27;20205;-83
2023/02/27 12:57:07;;;;;;;23.30;21.90;;;;;;;;;;5145910;27;20242;-83
2023/02/27 12:59:40;;;;;;;24.25;22.75;;;;;;;;;;5145614;27;20201;-81
2023/02/27 13:02:17;;;;;;;23.95;22.15;;;;;;;;;;5144564;27;20205;-81
2023/02/27 13:04:46;;;;;;;23.55;22.15;;;;;;;;;;5143549;27;20230;-82
2023/02/27 13:07:18;;;;;;;24.38;22.88;;;;;;;;;;5143883;27;20229;-82
2023/02/27 13:09:48;;;;;;;24.77;23.07;;;;;;;;;;5141375;27;20201;-79
2023/02/27 13:12:26;;;;;;;24.58;22.85;;;;;;;;;;5141358;27;20413;-81
2023/02/27 13:14:55;;;;;;;24.27;22.80;;;;;;;;;;5141928;27;20268;-79
2023/02/27 13:17:24;;;;;;;24.35;22.85;;;;;;;;;;5140607;27;20269;-79
2023/02/27 13:19:52;;;;;;;24.13;22.70;;;;;;;;;;5141212;27;20296;-81
2023/02/27 13:22:24;;;;;;;24.00;22.30;;;;;;;;;;5142639;27;20632;-90
2023/02/27 13:24:52;;;;;;;24.60;23.15;;;;;;;;;;5141308;27;20213;-80
2023/02/27 13:27:23;;;;;;;23.20;21.65;;;;;;;;;;5141687;27;20235;-80
2023/02/27 13:29:55;;;;;;;23.33;21.90;;;;;;;;;;5141918;27;20205;-81
2023/02/27 13:32:25;;;;;;;24.02;22.52;;;;;;;;;;5141846;27;20240;-81
2023/02/27 13:34:54;;;;;;;23.42;22.02;;;;;;;;;;5141552;27;20236;-80
2023/02/27 13:37:21;;;;;;;22.88;21.48;;;;;;;;;;5141701;27;20201;-81
2023/02/27 13:39:54;;;;;;;24.05;22.52;;;;;;;;;;5142145;27;20664;-81
2023/02/27 13:42:40;;;;;;;22.80;21.50;;;;;;;;;;5141083;27;20181;-81
2023/02/27 13:45:28;;;;;;;23.60;22.00;;;;;;;;;;5141374;27;20262;-81
2023/02/27 13:47:55;;;;;;;23.40;22.10;;;;;;;;;;5140745;27;20677;-81
2023/02/27 13:50:41;;;;;;;23.83;22.10;;;;;;;;;;5141518;27;20193;-81
2023/02/27 13:53:13;;;;;;;24.30;22.20;;;;;;;;;;5141389;27;20251;-81
2023/02/27 13:55:40;;;;;;;23.00;21.70;;;;;;;;;;5141290;27;20224;-81
2023/02/27 13:58:14;;;;;;;24.35;22.85;;;;;;;;;;5141640;27;20193;-81
2023/02/27 14:00:43;;;;;;;23.70;22.30;;;;;;;;;;5141082;27;20181;-80
2023/02/27 14:03:19;;;;;;;23.90;22.40;;;;;;;;;;5139841;27;20274;-80
2023/02/27 14:05:47;;;;;;;22.77;21.38;;;;;;;;;;5140225;27;20209;-81
2023/02/27 14:08:15;;;;;;;23.52;22.23;;;;;;;;;;5141455;27;20227;-81
2023/02/27 14:10:51;;;;;;;23.30;21.83;;;;;;;;;;5140203;27;20202;-81
2023/02/27 14:13:37;;;;;;;24.02;22.38;;;;;;;;;;5140419;27;20683;-81
2023/02/27 14:16:06;;;;;;;23.98;22.27;;;;;;;;;;5140232;27;20232;-81
2023/02/27 14:18:51;;;;;;;24.20;22.63;;;;;;;;;;5141105;27;20424;-86
2023/02/27 14:21:37;;;;;;;22.88;21.48;;;;;;;;;;5140123;27;20207;-81
2023/02/27 14:24:04;;;;;;;23.35;22.05;;;;;;;;;;5139713;27;20201;-80
2023/02/27 14:26:31;;;;;;;22.90;21.60;;;;;;;;;;5139408;27;20273;-80
2023/02/27 14:28:59;;;;;;;23.73;22.13;;;;;;;;;;5139748;27;20254;-80
2023/02/27 14:31:30;;;;;;;23.37;21.97;;;;;;;;;;5137879;27;20648;-81
2023/02/27 14:34:03;;;;;;;23.88;22.40;;;;;;;;;;5139451;27;20519;-80
2023/02/27 14:36:33;;;;;;;22.38;20.90;;;;;;;;;;5138484;27;20225;-80
2023/02/27 14:39:01;;;;;;;24.43;22.50;;;;;;;;;;5139147;27;20228;-80